Aviation Digital Data Service (ADDS)

Output produced by METARs form (2043 UTC 15 August 2018)
found at http://aviationweather.gov/adds/metars/
 
KSHV 151956Z 20011G17KT 10SM BKN055 BKN070 34/20 A2998 RMK AO2 SLP147 T03390200